Terminal Aerodrome Forecast
Issued by NWS

Home | Current Version | Previous Version | Text Only | Print | Product List | Glossary On
Versions: 1 2 3 4 5 6 7 8 9 10 11 12 13 14
000
FTUS45 KREV 161100
TAFRNO
TAF
KRNO 161120Z 1612/1712 VRB04KT P6SM FEW100 SCT180
     FM161900 36007KT P6SM FEW200
     FM170500 VRB03KT P6SM SKC=

USA.gov is the U.S. government's official web portal to all federal, state and local government web resources and services.